Time;durP1;ratioP1;P1;durP2;ratioP2;P2;SDS_P1;SDS_P2;PMS_P1;PMS_P2;Temp;Humidity;BMP_temperature;BMP_pressure;BME280_temperature;BME280_humidity;BME280_pressure;Samples;Min_cycle;Max_cycle;Signal;HPM_P1;HPM_P2
2023/04/21 00:00:44;;;;;;;12.27;3.92;;;12.10;99.90;;;;;;4967979;28;20060;-70
2023/04/21 00:03:09;;;;;;;8.55;3.88;;;12.00;99.90;;;;;;4970210;28;20030;-70
2023/04/21 00:05:35;;;;;;;8.80;4.07;;;12.00;99.90;;;;;;4964970;28;20351;-70
2023/04/21 00:08:01;;;;;;;9.25;4.15;;;12.00;99.90;;;;;;4968840;28;20074;-70
2023/04/21 00:10:27;;;;;;;7.18;4.25;;;12.00;99.90;;;;;;4966728;28;20049;-70
2023/04/21 00:12:52;;;;;;;10.43;4.10;;;12.00;99.90;;;;;;4969634;28;20565;-70
2023/04/21 00:15:18;;;;;;;8.93;4.32;;;12.00;99.90;;;;;;4973556;28;20121;-70
2023/04/21 00:17:44;;;;;;;7.15;3.95;;;12.00;99.90;;;;;;4970806;28;20037;-69
2023/04/21 00:20:10;;;;;;;7.82;4.15;;;12.10;99.90;;;;;;4970372;28;20030;-70
2023/04/21 00:22:36;;;;;;;6.30;3.88;;;12.00;99.90;;;;;;4972782;28;20038;-70
2023/04/21 00:25:02;;;;;;;9.27;4.03;;;12.00;99.90;;;;;;4973625;28;20026;-68
2023/04/21 00:27:28;;;;;;;12.23;4.18;;;12.00;99.90;;;;;;4969678;28;20038;-69
2023/04/21 00:29:53;;;;;;;9.85;4.32;;;12.00;99.90;;;;;;4957864;28;20030;-68
2023/04/21 00:32:19;;;;;;;12.98;4.15;;;12.00;99.90;;;;;;4972272;28;20026;-68
2023/04/21 00:34:45;;;;;;;9.15;4.18;;;11.90;99.90;;;;;;4947529;28;20031;-68
2023/04/21 00:37:11;;;;;;;9.48;3.72;;;11.90;99.90;;;;;;4970664;28;20037;-68
2023/04/21 00:39:38;;;;;;;10.27;4.75;;;11.90;99.90;;;;;;4966366;28;20026;-68
2023/04/21 00:42:04;;;;;;;13.00;4.43;;;11.80;99.90;;;;;;4962128;28;20027;-68
2023/04/21 00:44:30;;;;;;;10.30;4.15;;;11.80;99.90;;;;;;4957791;28;20046;-68
2023/04/21 00:46:56;;;;;;;6.15;3.50;;;11.70;99.90;;;;;;4949543;28;20030;-68
2023/04/21 00:49:24;;;;;;;10.65;4.18;;;11.80;99.90;;;;;;4967580;28;20808;-68
2023/04/21 00:51:51;;;;;;;12.23;4.30;;;11.80;99.90;;;;;;4953412;28;20035;-68
2023/04/21 00:54:18;;;;;;;12.50;4.78;;;11.80;99.90;;;;;;4967299;28;20116;-68
2023/04/21 00:56:44;;;;;;;12.32;5.05;;;11.80;99.90;;;;;;4969516;28;20035;-68
2023/04/21 00:59:10;;;;;;;13.82;4.47;;;11.80;99.90;;;;;;4960345;28;20698;-68
2023/04/21 01:01:36;;;;;;;17.13;5.22;;;11.80;99.90;;;;;;4958228;28;20038;-68
2023/04/21 01:04:03;;;;;;;13.05;4.72;;;11.80;99.90;;;;;;4959756;28;20040;-68
2023/04/21 01:06:33;;;;;;;13.82;5.25;;;11.80;99.90;;;;;;4954702;28;20058;-68
2023/04/21 01:08:59;;;;;;;10.50;4.43;;;11.80;99.90;;;;;;4949134;28;20030;-68
2023/04/21 01:11:25;;;;;;;8.48;4.45;;;11.80;99.90;;;;;;4946684;28;20037;-68
2023/04/21 01:13:53;;;;;;;9.38;5.40;;;11.80;99.90;;;;;;4973977;28;20085;-68
2023/04/21 01:16:20;;;;;;;14.40;6.15;;;11.90;99.90;;;;;;4947920;28;20147;-68
2023/04/21 01:18:46;;;;;;;9.25;5.25;;;11.90;99.90;;;;;;4966082;28;20031;-68
2023/04/21 01:21:13;;;;;;;14.77;5.07;;;11.90;99.90;;;;;;4960472;28;20062;-68
2023/04/21 01:23:39;;;;;;;8.50;4.65;;;11.90;99.90;;;;;;4970858;28;20114;-68
2023/04/21 01:26:05;;;;;;;11.85;4.75;;;11.90;99.90;;;;;;4969867;28;20853;-68
2023/04/21 01:28:35;;;;;;;11.27;5.20;;;11.90;99.90;;;;;;4951452;28;20026;-68
2023/04/21 01:31:03;;;;;;;8.98;5.43;;;11.90;99.90;;;;;;4961367;28;20026;-68
2023/04/21 01:33:29;;;;;;;9.93;4.78;;;11.90;99.90;;;;;;4961087;28;20038;-68
2023/04/21 01:35:57;;;;;;;12.70;5.22;;;11.90;99.90;;;;;;4954840;28;20031;-68
2023/04/21 01:38:23;;;;;;;13.32;6.03;;;11.90;99.90;;;;;;4952373;28;20034;-68
2023/04/21 01:40:52;;;;;;;9.43;5.30;;;12.00;99.90;;;;;;4961580;28;20023;-68
2023/04/21 01:43:21;;;;;;;13.48;5.38;;;11.90;99.90;;;;;;4950663;28;20031;-68
2023/04/21 01:45:47;;;;;;;12.02;5.78;;;11.90;99.90;;;;;;4964365;28;20062;-68
2023/04/21 01:48:12;;;;;;;14.80;5.75;;;11.90;99.90;;;;;;4957843;28;20466;-68
2023/04/21 01:50:39;;;;;;;13.55;6.38;;;11.90;99.90;;;;;;4950235;28;20035;-68
2023/04/21 01:53:05;;;;;;;12.75;5.65;;;11.90;99.90;;;;;;4969081;28;20038;-68
2023/04/21 01:55:32;;;;;;;22.08;6.05;;;11.90;99.90;;;;;;4962955;28;20054;-68
2023/04/21 01:57:58;;;;;;;14.75;6.65;;;11.90;99.90;;;;;;4953912;28;20033;-68
2023/04/21 02:00:25;;;;;;;9.40;5.68;;;11.90;99.90;;;;;;4959543;28;20027;-68
2023/04/21 02:02:51;;;;;;;18.85;6.30;;;11.80;99.90;;;;;;4973646;28;20042;-68
2023/04/21 02:05:17;;;;;;;11.98;5.75;;;11.80;99.90;;;;;;4974901;28;20655;-69
2023/04/21 02:07:44;;;;;;;18.05;6.38;;;11.90;99.90;;;;;;4958445;28;20037;-69
2023/04/21 02:10:10;;;;;;;11.07;6.38;;;11.80;99.90;;;;;;4948927;28;20026;-68
2023/04/21 02:12:37;;;;;;;12.55;6.13;;;11.80;99.90;;;;;;4973128;28;20034;-68
2023/04/21 02:15:03;;;;;;;12.95;6.30;;;11.70;99.90;;;;;;4975972;28;20105;-68
2023/04/21 02:17:30;;;;;;;9.90;6.43;;;11.60;99.90;;;;;;4958649;28;20121;-68
2023/04/21 02:19:56;;;;;;;13.02;6.55;;;11.70;99.90;;;;;;4962633;28;20035;-68
2023/04/21 02:22:22;;;;;;;12.15;6.25;;;11.70;99.90;;;;;;4962643;28;20141;-68
2023/04/21 02:24:49;;;;;;;12.05;6.93;;;11.70;99.90;;;;;;4970736;28;20038;-68
2023/04/21 02:27:15;;;;;;;14.95;6.32;;;11.70;99.90;;;;;;4946951;28;20038;-68
2023/04/21 02:29:41;;;;;;;11.82;6.63;;;11.60;99.90;;;;;;4970449;28;20158;-68
2023/04/21 02:32:07;;;;;;;13.27;6.10;;;11.60;99.90;;;;;;4969069;28;20030;-68
2023/04/21 02:34:33;;;;;;;15.10;7.07;;;11.50;99.90;;;;;;4963568;28;20038;-68
2023/04/21 02:36:59;;;;;;;11.65;6.28;;;11.60;99.90;;;;;;4973183;28;20033;-68
2023/04/21 02:39:25;;;;;;;12.52;6.53;;;11.50;99.90;;;;;;4973292;28;20090;-68
2023/04/21 02:41:51;;;;;;;13.10;6.47;;;11.50;99.80;;;;;;4975321;28;20113;-68
2023/04/21 02:44:17;;;;;;;14.48;6.38;;;11.50;99.80;;;;;;4973222;28;20043;-68
2023/04/21 02:46:43;;;;;;;13.07;5.88;;;11.50;99.60;;;;;;4973675;28;20023;-69
2023/04/21 02:49:10;;;;;;;14.05;7.03;;;11.50;99.60;;;;;;4972297;28;20041;-68
2023/04/21 02:51:36;;;;;;;13.30;7.00;;;11.50;99.60;;;;;;4956817;28;20030;-68
2023/04/21 02:54:02;;;;;;;12.32;6.63;;;11.50;99.60;;;;;;4970591;28;20054;-68
2023/04/21 02:56:28;;;;;;;10.85;6.57;;;11.50;99.40;;;;;;4949544;28;20038;-68
2023/04/21 02:58:54;;;;;;;11.38;6.85;;;11.40;99.50;;;;;;4960440;28;20031;-68
2023/04/21 03:01:20;;;;;;;22.48;7.18;;;11.40;99.50;;;;;;4949785;28;20030;-68
2023/04/21 03:03:45;;;;;;;11.15;7.00;;;11.30;99.40;;;;;;4961175;28;20446;-68
2023/04/21 03:06:11;;;;;;;16.13;7.55;;;11.30;99.60;;;;;;4961032;28;20047;-68
2023/04/21 03:08:38;;;;;;;13.63;6.32;;;11.30;99.80;;;;;;4968370;28;20035;-68
2023/04/21 03:11:05;;;;;;;10.93;6.75;;;11.30;99.60;;;;;;4953343;28;20030;-68
2023/04/21 03:13:30;;;;;;;14.98;7.50;;;11.30;99.80;;;;;;4970492;28;20033;-68
2023/04/21 03:15:56;;;;;;;16.98;6.88;;;11.30;99.80;;;;;;4976674;28;20027;-68
2023/04/21 03:18:22;;;;;;;9.93;6.93;;;11.20;99.30;;;;;;4955761;28;20062;-68
2023/04/21 03:20:49;;;;;;;12.80;7.38;;;11.10;99.40;;;;;;4961927;28;20022;-68
2023/04/21 03:23:16;;;;;;;13.13;7.22;;;11.00;99.60;;;;;;4959093;28;20561;-68
2023/04/21 03:25:42;;;;;;;13.82;7.00;;;11.00;99.50;;;;;;4959510;28;20061;-68
2023/04/21 03:28:08;;;;;;;10.23;6.72;;;11.00;99.50;;;;;;4963310;28;20690;-68
2023/04/21 03:30:34;;;;;;;12.40;7.15;;;11.10;99.50;;;;;;4950816;28;20031;-68
2023/04/21 03:33:00;;;;;;;16.90;7.38;;;11.10;99.40;;;;;;4955951;28;20037;-68
2023/04/21 03:35:26;;;;;;;14.38;6.72;;;11.00;99.30;;;;;;4946162;28;20030;-68
2023/04/21 03:37:52;;;;;;;13.57;6.88;;;11.00;99.40;;;;;;4946913;28;20122;-68
2023/04/21 03:40:19;;;;;;;13.30;7.32;;;11.00;99.50;;;;;;4950654;28;20038;-68
2023/04/21 03:42:45;;;;;;;13.27;7.25;;;11.00;99.50;;;;;;4948661;28;20057;-68
2023/04/21 03:45:12;;;;;;;13.90;7.47;;;11.00;99.60;;;;;;4956984;28;20030;-68
2023/04/21 03:47:37;;;;;;;18.33;7.72;;;10.90;99.70;;;;;;4956124;28;20497;-68
2023/04/21 03:50:04;;;;;;;16.45;8.38;;;10.90;99.40;;;;;;4972259;28;20081;-68
2023/04/21 03:52:30;;;;;;;16.30;8.05;;;10.80;99.60;;;;;;4973824;28;20026;-68
2023/04/21 03:54:56;;;;;;;14.70;7.50;;;10.80;99.50;;;;;;4971197;28;20045;-68
2023/04/21 03:57:21;;;;;;;16.42;7.93;;;10.80;99.70;;;;;;4973826;28;20026;-68
2023/04/21 03:59:47;;;;;;;15.27;8.15;;;10.80;99.80;;;;;;4973117;28;20153;-68
2023/04/21 04:02:13;;;;;;;18.02;8.00;;;10.70;99.90;;;;;;4972868;28;20137;-68
2023/04/21 04:04:39;;;;;;;16.50;7.90;;;10.70;99.90;;;;;;4972480;28;20030;-68
2023/04/21 04:07:06;;;;;;;14.90;8.55;;;10.70;99.90;;;;;;4976769;28;20027;-68
2023/04/21 04:09:32;;;;;;;14.73;8.00;;;10.70;99.90;;;;;;4966331;28;20510;-67
2023/04/21 04:11:58;;;;;;;16.25;8.20;;;10.60;99.90;;;;;;4949741;28;20034;-68
2023/04/21 04:14:23;;;;;;;13.35;7.15;;;10.60;99.90;;;;;;4974954;28;20087;-68
2023/04/21 04:16:49;;;;;;;16.83;7.65;;;10.60;99.80;;;;;;4953848;28;20081;-68
2023/04/21 04:19:15;;;;;;;16.25;8.20;;;10.60;99.90;;;;;;4969193;28;20022;-68
2023/04/21 04:21:41;;;;;;;14.55;7.45;;;10.60;99.80;;;;;;4972811;28;20034;-68
2023/04/21 04:24:07;;;;;;;12.15;7.93;;;10.50;99.70;;;;;;4958900;28;20097;-68
2023/04/21 04:26:34;;;;;;;12.82;6.80;;;10.60;99.70;;;;;;4972043;28;20822;-68
2023/04/21 04:29:01;;;;;;;12.18;7.22;;;10.60;99.80;;;;;;4972079;28;20580;-68
2023/04/21 04:31:29;;;;;;;11.85;7.88;;;10.60;99.80;;;;;;4972941;28;20865;-68
2023/04/21 04:33:56;;;;;;;16.73;8.77;;;10.60;99.30;;;;;;4973951;28;20049;-68
2023/04/21 04:36:23;;;;;;;16.60;8.02;;;10.70;99.50;;;;;;4971489;28;20034;-68
2023/04/21 04:38:49;;;;;;;13.65;7.80;;;10.70;99.50;;;;;;4972981;28;20034;-68
2023/04/21 04:41:15;;;;;;;14.88;7.47;;;10.60;99.20;;;;;;4958248;28;20037;-68
2023/04/21 04:43:41;;;;;;;13.65;8.02;;;10.70;99.30;;;;;;4976076;28;20643;-68
2023/04/21 04:46:11;;;;;;;14.75;8.30;;;10.70;99.30;;;;;;4964501;28;20745;-69
2023/04/21 04:48:38;;;;;;;17.73;8.07;;;10.70;99.10;;;;;;4971738;28;20046;-65
2023/04/21 04:51:04;;;;;;;12.75;7.82;;;10.70;99.20;;;;;;4965919;28;20034;-68
2023/04/21 04:53:30;;;;;;;10.48;7.25;;;10.70;99.20;;;;;;4965000;28;20556;-68
2023/04/21 04:55:57;;;;;;;14.10;7.30;;;10.80;99.10;;;;;;4968117;28;20035;-68
2023/04/21 04:58:23;;;;;;;14.23;8.20;;;10.80;99.10;;;;;;4966745;28;20027;-68
2023/04/21 05:00:49;;;;;;;13.63;7.40;;;10.80;99.30;;;;;;4972457;28;20097;-67
2023/04/21 05:03:15;;;;;;;11.63;7.80;;;10.80;99.10;;;;;;4971681;28;20031;-68
2023/04/21 05:05:41;;;;;;;13.45;7.82;;;10.90;99.10;;;;;;4971117;28;20041;-67
2023/04/21 05:08:07;;;;;;;12.38;7.72;;;11.00;98.60;;;;;;4971173;28;20100;-68
2023/04/21 05:10:33;;;;;;;11.50;7.32;;;11.00;98.60;;;;;;4969589;28;20061;-68
2023/04/21 05:12:59;;;;;;;15.93;8.63;;;11.00;98.60;;;;;;4959719;28;20034;-68
2023/04/21 05:15:25;;;;;;;13.73;7.57;;;11.10;98.40;;;;;;4971742;28;20765;-68
2023/04/21 05:17:50;;;;;;;12.20;7.45;;;11.00;98.20;;;;;;4973838;28;20438;-68
2023/04/21 05:20:16;;;;;;;12.43;7.65;;;11.10;98.30;;;;;;4969890;28;20137;-68
2023/04/21 05:22:42;;;;;;;12.70;7.78;;;11.10;97.70;;;;;;4972443;28;20056;-68
2023/04/21 05:25:11;;;;;;;14.35;8.27;;;11.20;98.20;;;;;;4970226;28;20046;-68
2023/04/21 05:27:37;;;;;;;16.50;7.43;;;11.30;97.70;;;;;;4959344;28;20057;-68
2023/04/21 05:30:03;;;;;;;12.65;7.40;;;11.40;97.50;;;;;;4980046;28;20061;-68
2023/04/21 05:32:29;;;;;;;11.43;6.90;;;11.40;97.20;;;;;;4971534;28;20034;-68
2023/04/21 05:34:54;;;;;;;10.02;7.28;;;11.50;97.00;;;;;;4970827;28;20033;-69
2023/04/21 05:37:20;;;;;;;13.98;7.78;;;11.80;97.40;;;;;;4977419;28;20513;-69
2023/04/21 05:39:46;;;;;;;12.45;8.00;;;12.00;96.80;;;;;;4974598;28;20022;-68
2023/04/21 05:42:11;;;;;;;13.02;7.80;;;12.10;95.90;;;;;;4977476;28;20269;-68
2023/04/21 05:44:38;;;;;;;16.05;7.18;;;12.40;95.40;;;;;;4976505;28;20859;-68
2023/04/21 05:47:05;;;;;;;12.20;8.10;;;12.70;94.90;;;;;;4976421;28;20033;-68
2023/04/21 05:49:31;;;;;;;13.45;7.65;;;13.00;94.20;;;;;;4975263;28;20165;-68
2023/04/21 05:51:56;;;;;;;13.55;7.60;;;13.30;94.00;;;;;;4960358;28;20038;-68
2023/04/21 05:54:22;;;;;;;11.43;7.50;;;13.70;92.00;;;;;;4974046;28;20041;-68
2023/04/21 05:56:48;;;;;;;11.48;8.30;;;14.30;90.80;;;;;;4971214;28;20690;-68
2023/04/21 05:59:14;;;;;;;12.98;7.75;;;14.70;87.80;;;;;;4978347;28;20394;-68
2023/04/21 06:01:40;;;;;;;12.45;7.70;;;15.20;88.00;;;;;;4971940;28;20018;-68
2023/04/21 06:04:05;;;;;;;11.77;7.90;;;15.60;83.70;;;;;;4973267;28;20569;-68
2023/04/21 06:06:31;;;;;;;12.60;7.43;;;16.00;81.00;;;;;;4967635;28;20583;-68
2023/04/21 06:08:57;;;;;;;15.40;7.68;;;16.40;79.00;;;;;;4971908;28;20798;-68
2023/04/21 06:11:23;;;;;;;13.25;7.88;;;16.50;75.50;;;;;;4974924;28;20750;-68
2023/04/21 06:13:49;;;;;;;14.85;8.57;;;16.40;75.60;;;;;;4976385;28;20034;-68
2023/04/21 06:16:15;;;;;;;12.98;8.00;;;16.40;73.60;;;;;;4972329;28;20479;-68
2023/04/21 06:18:41;;;;;;;11.95;7.75;;;16.60;74.20;;;;;;4974456;28;20093;-68
2023/04/21 06:21:06;;;;;;;12.25;8.02;;;17.00;72.80;;;;;;4961131;28;20031;-68
2023/04/21 06:23:32;;;;;;;12.25;7.30;;;17.60;70.50;;;;;;4971109;28;20044;-68
2023/04/21 06:26:06;;;;;;;14.68;8.18;;;18.20;67.90;;;;;;4974286;28;20038;-69
2023/04/21 06:28:35;;;;;;;14.10;7.43;;;18.70;66.40;;;;;;4977818;28;20946;-69
2023/04/21 06:31:02;;;;;;;10.57;7.53;;;18.80;62.80;;;;;;4976982;28;20034;-69
2023/04/21 06:33:28;;;;;;;12.43;7.32;;;18.90;62.80;;;;;;4973431;28;20046;-69
2023/04/21 06:35:54;;;;;;;12.75;7.50;;;19.00;61.20;;;;;;4973767;28;20106;-68
2023/04/21 06:38:20;;;;;;;14.52;7.68;;;19.10;61.30;;;;;;4961741;28;20438;-68
2023/04/21 06:40:46;;;;;;;15.65;8.77;;;19.20;59.20;;;;;;4961193;28;20027;-69
2023/04/21 06:43:12;;;;;;;13.95;8.25;;;19.10;59.30;;;;;;4954177;28;20682;-69
2023/04/21 06:45:38;;;;;;;12.68;8.07;;;19.10;58.90;;;;;;4954944;28;20035;-69
2023/04/21 06:48:04;;;;;;;13.05;7.60;;;19.40;60.00;;;;;;4973467;28;20414;-68
2023/04/21 06:50:29;;;;;;;10.93;7.47;;;19.60;59.10;;;;;;4974354;28;20034;-70
2023/04/21 06:52:55;;;;;;;16.88;8.40;;;19.90;57.20;;;;;;4971988;28;20035;-69
2023/04/21 06:55:21;;;;;;;12.30;7.60;;;19.60;55.90;;;;;;4971633;28;20031;-70
2023/04/21 06:57:47;;;;;;;11.73;7.60;;;19.70;56.90;;;;;;4973424;28;20031;-70
2023/04/21 07:00:13;;;;;;;13.98;7.68;;;20.00;57.40;;;;;;4972799;28;20495;-68
2023/04/21 07:02:40;;;;;;;10.30;7.47;;;20.10;56.20;;;;;;4968320;28;20490;-67
2023/04/21 07:05:06;;;;;;;13.65;7.18;;;20.30;54.90;;;;;;4968051;28;20084;-67
2023/04/21 07:07:32;;;;;;;10.35;7.13;;;20.60;54.60;;;;;;4970444;28;20751;-67
2023/04/21 07:09:58;;;;;;;13.00;7.22;;;20.70;54.10;;;;;;4974015;28;20043;-66
2023/04/21 07:12:24;;;;;;;11.20;6.88;;;20.70;54.90;;;;;;4969866;28;20105;-68
2023/04/21 07:14:49;;;;;;;13.52;7.78;;;20.40;53.70;;;;;;4965534;28;20038;-66
2023/04/21 07:17:15;;;;;;;14.93;7.30;;;20.20;54.00;;;;;;4965934;28;20042;-70
2023/04/21 07:19:41;;;;;;;11.30;7.00;;;19.80;55.00;;;;;;4970033;28;20045;-69
2023/04/21 07:22:07;;;;;;;17.58;7.65;;;19.70;56.00;;;;;;4970407;28;20034;-65
2023/04/21 07:24:34;;;;;;;15.80;7.35;;;19.60;54.60;;;;;;4971799;28;20030;-71
2023/04/21 07:27:01;;;;;;;11.88;7.07;;;19.60;56.20;;;;;;4974150;28;20027;-68
2023/04/21 07:29:27;;;;;;;10.55;6.97;;;19.90;55.10;;;;;;4973787;28;20665;-68
2023/04/21 07:31:54;;;;;;;14.38;7.40;;;20.30;53.70;;;;;;4974109;28;20046;-68
2023/04/21 07:34:20;;;;;;;11.13;6.90;;;20.40;54.10;;;;;;4976639;28;20029;-69
2023/04/21 07:36:45;;;;;;;10.13;6.68;;;20.30;54.80;;;;;;4972748;28;20034;-69
2023/04/21 07:39:11;;;;;;;11.02;7.22;;;20.20;54.60;;;;;;4960556;28;20023;-67
2023/04/21 07:41:37;;;;;;;10.93;7.18;;;20.30;55.20;;;;;;4971472;28;20062;-71
2023/04/21 07:44:03;;;;;;;12.77;6.70;;;20.40;55.30;;;;;;4972213;28;20026;-70
2023/04/21 07:46:30;;;;;;;16.73;7.80;;;20.30;53.10;;;;;;4964282;28;20372;-69
2023/04/21 07:48:57;;;;;;;13.90;8.02;;;20.40;52.60;;;;;;4970106;28;20399;-67
2023/04/21 07:51:24;;;;;;;11.35;6.85;;;20.60;52.40;;;;;;4963699;28;20030;-70
2023/04/21 07:53:50;;;;;;;11.82;7.15;;;20.70;52.30;;;;;;4949173;28;20038;-70
2023/04/21 07:56:16;;;;;;;11.95;6.65;;;20.90;53.10;;;;;;4971967;28;20057;-70
2023/04/21 07:58:42;;;;;;;11.32;7.75;;;21.10;51.40;;;;;;4968626;28;20057;-69
2023/04/21 08:01:08;;;;;;;10.70;6.40;;;21.30;51.80;;;;;;4975369;28;20533;-70
2023/04/21 08:03:34;;;;;;;15.55;7.05;;;21.40;51.90;;;;;;4972006;28;20080;-68
2023/04/21 08:06:06;;;;;;;10.13;6.50;;;21.60;51.40;;;;;;5036743;28;20415;-70
2023/04/21 08:08:32;;;;;;;9.82;6.90;;;21.50;49.90;;;;;;5027770;28;20029;-70
2023/04/21 08:10:58;;;;;;;12.82;6.82;;;21.50;50.00;;;;;;5029352;28;20037;-70
2023/04/21 08:13:24;;;;;;;12.77;6.90;;;21.30;49.60;;;;;;5022945;28;20025;-71
2023/04/21 08:15:51;;;;;;;11.43;6.75;;;21.20;49.70;;;;;;5028782;28;20040;-66
2023/04/21 08:18:17;;;;;;;11.45;6.55;;;21.20;49.80;;;;;;5026933;28;20041;-70
2023/04/21 08:20:46;;;;;;;11.95;6.25;;;21.30;50.20;;;;;;5023143;28;20195;-70
2023/04/21 08:23:13;;;;;;;11.27;6.63;;;21.20;49.90;;;;;;5031196;28;20378;-70
2023/04/21 08:25:39;;;;;;;12.75;6.60;;;21.10;50.40;;;;;;5024817;28;20064;-70
2023/04/21 08:28:05;;;;;;;10.18;5.88;;;20.80;49.70;;;;;;5028441;28;20818;-70
2023/04/21 08:30:30;;;;;;;10.82;6.57;;;20.80;49.90;;;;;;5029862;28;20033;-70
2023/04/21 08:32:56;;;;;;;10.55;6.18;;;20.80;51.10;;;;;;5025885;28;20034;-69
2023/04/21 08:35:22;;;;;;;10.30;5.70;;;21.00;50.30;;;;;;5026829;28;20047;-69
2023/04/21 08:37:48;;;;;;;12.45;5.63;;;21.40;51.00;;;;;;5026611;28;20049;-69
2023/04/21 08:40:14;;;;;;;14.13;6.20;;;21.50;51.20;;;;;;5030441;28;20029;-70
2023/04/21 08:42:41;;;;;;;12.98;6.38;;;21.50;48.60;;;;;;5026533;28;20554;-69
2023/04/21 08:45:08;;;;;;;9.13;5.00;;;21.40;48.90;;;;;;5027907;28;20039;-71
2023/04/21 08:47:36;;;;;;;9.68;5.72;;;21.50;49.20;;;;;;5028774;28;20037;-70
2023/04/21 08:50:02;;;;;;;8.05;5.93;;;21.80;48.10;;;;;;5030612;28;20029;-69
2023/04/21 08:52:28;;;;;;;8.30;6.00;;;21.90;47.50;;;;;;5030297;28;20056;-69
2023/04/21 08:54:55;;;;;;;8.95;5.63;;;22.00;47.40;;;;;;5025695;28;20037;-70
2023/04/21 08:57:21;;;;;;;11.10;5.93;;;22.10;47.30;;;;;;5025207;28;20635;-70
2023/04/21 08:59:47;;;;;;;9.73;5.68;;;22.60;47.00;;;;;;5023149;28;20041;-69
2023/04/21 09:02:17;;;;;;;9.43;6.00;;;23.30;46.40;;;;;;5021202;28;20053;-70
2023/04/21 09:04:53;;;;;;;9.18;5.80;;;23.60;43.60;;;;;;5023163;28;20108;-69
2023/04/21 09:07:33;;;;;;;10.45;5.63;;;23.70;44.70;;;;;;5026375;28;20017;-69
2023/04/21 09:09:59;;;;;;;7.50;5.35;;;23.90;42.70;;;;;;5024669;28;20045;-70
2023/04/21 09:12:26;;;;;;;8.57;5.25;;;24.10;42.60;;;;;;5026581;28;20057;-69
2023/04/21 09:14:53;;;;;;;9.27;5.63;;;24.10;41.30;;;;;;5021302;28;20103;-67
2023/04/21 09:17:21;;;;;;;10.10;5.63;;;23.90;41.40;;;;;;5017358;28;20040;-69
2023/04/21 09:19:47;;;;;;;9.88;5.53;;;23.80;42.40;;;;;;5010869;28;20113;-70
2023/04/21 09:22:15;;;;;;;9.85;4.88;;;24.00;43.60;;;;;;5014016;28;20060;-68
2023/04/21 09:24:48;;;;;;;8.00;5.38;;;24.20;41.20;;;;;;5015862;28;20037;-70
2023/04/21 09:27:16;;;;;;;7.32;4.80;;;24.60;40.80;;;;;;5016613;28;20058;-70
2023/04/21 09:29:49;;;;;;;13.23;5.45;;;24.80;40.50;;;;;;5012674;28;20029;-71
2023/04/21 09:32:18;;;;;;;6.05;4.57;;;24.70;41.10;;;;;;5014722;28;20095;-68
2023/04/21 09:34:45;;;;;;;7.03;5.20;;;24.50;40.60;;;;;;5016317;28;20474;-69
2023/04/21 09:37:13;;;;;;;12.07;5.75;;;24.20;40.70;;;;;;5017522;28;20041;-69
2023/04/21 09:39:43;;;;;;;9.93;5.03;;;23.70;40.60;;;;;;5018023;28;20149;-71
2023/04/21 09:42:10;;;;;;;7.30;4.93;;;23.30;41.60;;;;;;5013132;28;20088;-71
2023/04/21 09:44:37;;;;;;;6.78;4.88;;;23.10;43.10;;;;;;5013839;28;20082;-69
2023/04/21 09:47:04;;;;;;;7.50;5.05;;;22.90;41.60;;;;;;5011531;28;20065;-73
2023/04/21 09:49:34;;;;;;;7.18;4.63;;;22.70;43.30;;;;;;5011567;28;20548;-72
2023/04/21 09:52:01;;;;;;;11.00;5.15;;;22.60;44.20;;;;;;5008884;28;20096;-75
2023/04/21 09:54:31;;;;;;;6.97;4.45;;;23.10;42.70;;;;;;5014501;28;20033;-74
2023/04/21 09:57:00;;;;;;;11.57;4.80;;;23.40;43.80;;;;;;5010325;28;20571;-73
2023/04/21 09:59:34;;;;;;;5.25;3.97;;;23.30;40.50;;;;;;5013637;28;20439;-74
2023/04/21 10:02:00;;;;;;;7.57;4.50;;;23.40;41.00;;;;;;5013088;28;20037;-73
2023/04/21 10:04:27;;;;;;;9.48;4.45;;;23.00;41.40;;;;;;5006162;28;20034;-72
2023/04/21 10:06:54;;;;;;;7.85;4.82;;;23.00;42.40;;;;;;5019201;28;20123;-74
2023/04/21 10:09:24;;;;;;;9.80;5.00;;;22.90;40.60;;;;;;5008648;28;20025;-74
2023/04/21 10:11:51;;;;;;;8.75;4.63;;;23.10;42.90;;;;;;5002736;28;20038;-72
2023/04/21 10:14:17;;;;;;;9.98;4.70;;;23.00;42.70;;;;;;5014672;28;20037;-73
2023/04/21 10:16:55;;;;;;;7.28;4.75;;;23.00;44.00;;;;;;5008123;28;20038;-73
2023/04/21 10:19:27;;;;;;;12.98;4.78;;;23.40;42.90;;;;;;5016472;28;20040;-74
2023/04/21 10:21:59;;;;;;;7.60;4.72;;;23.80;41.80;;;;;;5010745;28;20057;-72
2023/04/21 10:24:28;;;;;;;5.50;4.25;;;23.50;40.90;;;;;;5011375;28;20063;-64
2023/04/21 10:26:58;;;;;;;8.15;4.72;;;23.00;41.10;;;;;;5011956;28;20033;-74
2023/04/21 10:29:33;;;;;;;6.22;4.50;;;22.80;42.70;;;;;;5016495;28;20033;-70
2023/04/21 10:32:08;;;;;;;8.30;4.57;;;22.60;42.50;;;;;;5018462;28;20048;-70
2023/04/21 10:34:36;;;;;;;6.50;4.80;;;22.40;42.80;;;;;;5021722;28;20037;-70
2023/04/21 10:37:05;;;;;;;12.52;4.50;;;22.50;43.80;;;;;;5021703;28;20124;-70
2023/04/21 10:39:37;;;;;;;13.18;4.97;;;22.50;44.50;;;;;;5015979;28;20037;-71
2023/04/21 10:42:12;;;;;;;7.07;5.10;;;22.20;42.30;;;;;;5013407;28;20034;-71
2023/04/21 10:45:05;;;;;;;7.22;4.47;;;22.30;43.30;;;;;;5009192;28;20037;-71
2023/04/21 10:47:47;;;;;;;7.75;4.60;;;22.40;42.00;;;;;;5008142;28;20080;-71
2023/04/21 10:50:22;;;;;;;8.43;4.68;;;22.50;44.00;;;;;;5017215;28;20037;-68
2023/04/21 10:52:56;;;;;;;6.85;4.50;;;22.80;43.30;;;;;;5007398;28;20049;-69
2023/04/21 10:55:26;;;;;;;8.77;4.68;;;23.00;41.90;;;;;;5010075;28;20725;-69
2023/04/21 10:57:52;;;;;;;10.77;5.15;;;23.10;40.30;;;;;;5008520;28;20072;-68
2023/04/21 11:00:21;;;;;;;7.45;4.53;;;23.30;40.60;;;;;;5006115;28;20117;-69
2023/04/21 11:02:55;;;;;;;5.47;4.68;;;23.30;39.10;;;;;;5015083;28;20104;-70
2023/04/21 11:05:27;;;;;;;7.03;4.80;;;23.10;40.00;;;;;;5010419;28;20084;-70
2023/04/21 11:08:02;;;;;;;7.35;4.70;;;23.00;41.80;;;;;;5013546;28;20026;-70
2023/04/21 11:10:27;;;;;;;10.02;5.32;;;22.60;42.10;;;;;;5011619;28;20037;-70
2023/04/21 11:12:56;;;;;;;8.73;4.55;;;22.10;41.40;;;;;;5007428;28;20704;-70
2023/04/21 11:15:22;;;;;;;8.35;4.63;;;21.90;41.90;;;;;;5014899;28;20124;-70
2023/04/21 11:17:49;;;;;;;6.68;4.32;;;21.50;42.10;;;;;;5015182;28;20055;-70
2023/04/21 11:20:14;;;;;;;7.50;4.78;;;21.20;42.40;;;;;;5010639;28;20072;-70
2023/04/21 11:22:40;;;;;;;6.45;4.25;;;21.20;43.60;;;;;;5010164;28;20132;-66
2023/04/21 11:25:16;;;;;;;8.27;4.85;;;21.00;44.20;;;;;;5008330;28;20155;-73
2023/04/21 11:27:53;;;;;;;8.68;5.00;;;20.90;44.20;;;;;;5003979;28;20168;-71
2023/04/21 11:30:19;;;;;;;14.27;4.68;;;20.60;44.00;;;;;;5012697;28;20022;-72
2023/04/21 11:32:45;;;;;;;7.05;5.13;;;20.60;46.40;;;;;;5005633;28;20030;-72
2023/04/21 11:35:11;;;;;;;8.15;5.55;;;20.70;44.90;;;;;;5005474;28;20124;-71
2023/04/21 11:37:37;;;;;;;7.72;5.07;;;20.80;44.70;;;;;;5007012;28;20112;-68
2023/04/21 11:40:05;;;;;;;10.38;4.72;;;20.80;44.60;;;;;;5009835;28;20045;-69
2023/04/21 11:42:30;;;;;;;8.35;4.93;;;21.00;44.30;;;;;;5011103;28;20069;-69
2023/04/21 11:44:57;;;;;;;8.43;4.85;;;21.00;44.00;;;;;;5015466;28;20121;-69
2023/04/21 11:47:27;;;;;;;10.38;4.53;;;20.90;44.10;;;;;;5007659;28;20025;-71
2023/04/21 11:49:57;;;;;;;7.65;5.03;;;20.80;43.60;;;;;;5012462;28;20486;-70
2023/04/21 11:52:34;;;;;;;6.28;4.78;;;20.70;43.50;;;;;;5012233;28;20363;-69
2023/04/21 11:55:11;;;;;;;6.45;4.82;;;20.80;44.20;;;;;;5004247;28;20120;-70
2023/04/21 11:57:39;;;;;;;11.77;4.55;;;20.80;44.70;;;;;;5009221;28;20029;-70
2023/04/21 12:00:10;;;;;;;11.25;4.70;;;20.70;43.10;;;;;;5007096;28;20108;-70
2023/04/21 12:02:36;;;;;;;8.40;5.00;;;20.80;43.80;;;;;;4999829;28;20026;-71
2023/04/21 12:05:12;;;;;;;6.68;4.80;;;20.70;43.30;;;;;;5005831;28;20034;-72
2023/04/21 12:07:45;;;;;;;8.55;4.65;;;20.70;42.60;;;;;;5006613;28;20032;-71
2023/04/21 12:10:16;;;;;;;10.82;4.93;;;20.80;42.70;;;;;;5009375;28;20038;-70
2023/04/21 12:12:43;;;;;;;5.90;4.10;;;20.90;43.60;;;;;;5008920;28;20037;-71
2023/04/21 12:15:11;;;;;;;9.48;4.88;;;20.80;43.50;;;;;;5008113;28;20041;-69
2023/04/21 12:17:49;;;;;;;7.03;4.38;;;20.80;44.40;;;;;;5010174;28;20038;-71
2023/04/21 12:20:16;;;;;;;8.60;4.70;;;20.70;44.40;;;;;;5006186;28;20389;-70
2023/04/21 12:22:42;;;;;;;8.05;4.32;;;20.60;44.50;;;;;;5008627;28;20921;-67
2023/04/21 12:25:08;;;;;;;8.77;4.25;;;20.60;44.00;;;;;;5007388;28;20036;-67
2023/04/21 12:27:34;;;;;;;7.40;3.90;;;20.70;45.30;;;;;;5009464;28;20385;-73
2023/04/21 12:30:00;;;;;;;6.82;4.22;;;20.60;42.30;;;;;;5015335;28;20166;-71
2023/04/21 12:32:26;;;;;;;8.25;4.10;;;20.60;42.80;;;;;;5012047;28;20029;-66
2023/04/21 12:34:51;;;;;;;7.45;4.28;;;20.80;42.80;;;;;;5006745;28;20029;-70
2023/04/21 12:37:18;;;;;;;5.15;4.10;;;20.90;41.90;;;;;;5008378;28;20123;-71
2023/04/21 12:39:44;;;;;;;7.68;4.20;;;20.90;42.10;;;;;;5006749;28;20048;-69